sensor_id;sensor_type;location;lat;lon;timestamp;P1;durP1;ratioP1;P2;durP2;ratioP2
23718;SDS011;43322;52.230;5.702;2023-06-14T00:00:06;4.28;;;2.95;;
23718;SDS011;43322;52.230;5.702;2023-06-14T00:02:34;3.35;;;2.83;;
23718;SDS011;43322;52.230;5.702;2023-06-14T00:05:00;3.47;;;2.50;;
23718;SDS011;43322;52.230;5.702;2023-06-14T00:07:33;6.28;;;2.70;;
23718;SDS011;43322;52.230;5.702;2023-06-14T00:10:01;6.75;;;2.80;;
23718;SDS011;43322;52.230;5.702;2023-06-14T00:12:29;5.40;;;2.95;;
23718;SDS011;43322;52.230;5.702;2023-06-14T00:14:57;3.35;;;2.58;;
23718;SDS011;43322;52.230;5.702;2023-06-14T00:17:26;3.28;;;2.78;;
23718;SDS011;43322;52.230;5.702;2023-06-14T00:19:55;8.15;;;2.75;;
23718;SDS011;43322;52.230;5.702;2023-06-14T00:22:22;6.03;;;2.80;;
23718;SDS011;43322;52.230;5.702;2023-06-14T00:24:50;4.15;;;2.25;;
23718;SDS011;43322;52.230;5.702;2023-06-14T00:27:16;3.03;;;2.63;;
23718;SDS011;43322;52.230;5.702;2023-06-14T00:29:43;4.05;;;2.50;;
23718;SDS011;43322;52.230;5.702;2023-06-14T00:32:11;3.17;;;2.65;;
23718;SDS011;43322;52.230;5.702;2023-06-14T00:34:38;2.70;;;2.50;;
23718;SDS011;43322;52.230;5.702;2023-06-14T00:37:05;4.15;;;2.72;;
23718;SDS011;43322;52.230;5.702;2023-06-14T00:39:31;2.75;;;2.50;;
23718;SDS011;43322;52.230;5.702;2023-06-14T00:41:58;2.28;;;2.08;;
23718;SDS011;43322;52.230;5.702;2023-06-14T00:44:25;5.05;;;2.47;;
23718;SDS011;43322;52.230;5.702;2023-06-14T00:46:51;2.47;;;2.28;;
23718;SDS011;43322;52.230;5.702;2023-06-14T00:49:19;3.30;;;2.70;;
23718;SDS011;43322;52.230;5.702;2023-06-14T00:51:46;5.35;;;2.60;;
23718;SDS011;43322;52.230;5.702;2023-06-14T00:54:13;6.93;;;2.50;;
23718;SDS011;43322;52.230;5.702;2023-06-14T00:56:39;5.15;;;2.47;;
23718;SDS011;43322;52.230;5.702;2023-06-14T00:59:08;5.47;;;2.60;;
23718;SDS011;43322;52.230;5.702;2023-06-14T01:01:36;3.33;;;2.63;;
23718;SDS011;43322;52.230;5.702;2023-06-14T01:04:03;3.35;;;2.75;;
23718;SDS011;43322;52.230;5.702;2023-06-14T01:06:33;5.22;;;2.80;;
23718;SDS011;43322;52.230;5.702;2023-06-14T01:09:09;4.15;;;2.78;;
23718;SDS011;43322;52.230;5.702;2023-06-14T01:11:45;8.35;;;2.40;;
23718;SDS011;43322;52.230;5.702;2023-06-14T01:14:16;5.55;;;2.60;;
23718;SDS011;43322;52.230;5.702;2023-06-14T01:16:44;4.55;;;2.88;;
23718;SDS011;43322;52.230;5.702;2023-06-14T01:19:11;5.60;;;2.67;;
23718;SDS011;43322;52.230;5.702;2023-06-14T01:21:40;4.88;;;2.92;;
23718;SDS011;43322;52.230;5.702;2023-06-14T01:24:09;3.25;;;2.30;;
23718;SDS011;43322;52.230;5.702;2023-06-14T01:26:36;5.80;;;2.70;;
23718;SDS011;43322;52.230;5.702;2023-06-14T01:29:04;2.65;;;2.45;;
23718;SDS011;43322;52.230;5.702;2023-06-14T01:31:32;3.50;;;2.60;;
23718;SDS011;43322;52.230;5.702;2023-06-14T01:34:06;2.40;;;2.22;;
23718;SDS011;43322;52.230;5.702;2023-06-14T01:36:33;5.40;;;2.50;;
23718;SDS011;43322;52.230;5.702;2023-06-14T01:39:02;5.88;;;2.70;;
23718;SDS011;43322;52.230;5.702;2023-06-14T01:41:32;5.80;;;2.90;;
23718;SDS011;43322;52.230;5.702;2023-06-14T01:44:01;4.65;;;2.60;;
23718;SDS011;43322;52.230;5.702;2023-06-14T01:46:28;2.83;;;2.55;;
23718;SDS011;43322;52.230;5.702;2023-06-14T01:48:54;9.45;;;2.65;;
23718;SDS011;43322;52.230;5.702;2023-06-14T01:51:21;3.45;;;3.00;;
23718;SDS011;43322;52.230;5.702;2023-06-14T01:53:48;4.68;;;2.63;;
23718;SDS011;43322;52.230;5.702;2023-06-14T01:56:15;7.75;;;2.58;;
23718;SDS011;43322;52.230;5.702;2023-06-14T01:58:43;6.53;;;2.30;;
23718;SDS011;43322;52.230;5.702;2023-06-14T02:01:09;6.50;;;2.63;;
23718;SDS011;43322;52.230;5.702;2023-06-14T02:03:37;9.50;;;2.08;;
23718;SDS011;43322;52.230;5.702;2023-06-14T02:06:04;6.00;;;2.70;;
23718;SDS011;43322;52.230;5.702;2023-06-14T02:08:31;7.70;;;2.90;;
23718;SDS011;43322;52.230;5.702;2023-06-14T02:10:57;3.72;;;2.42;;
23718;SDS011;43322;52.230;5.702;2023-06-14T02:13:24;2.55;;;2.33;;
23718;SDS011;43322;52.230;5.702;2023-06-14T02:15:52;5.10;;;2.75;;
23718;SDS011;43322;52.230;5.702;2023-06-14T02:18:19;6.55;;;2.70;;
23718;SDS011;43322;52.230;5.702;2023-06-14T02:20:46;3.25;;;2.35;;
23718;SDS011;43322;52.230;5.702;2023-06-14T02:23:13;3.92;;;2.45;;
23718;SDS011;43322;52.230;5.702;2023-06-14T02:25:39;3.65;;;2.70;;
23718;SDS011;43322;52.230;5.702;2023-06-14T02:28:08;2.40;;;2.20;;
23718;SDS011;43322;52.230;5.702;2023-06-14T02:30:34;2.83;;;2.33;;
23718;SDS011;43322;52.230;5.702;2023-06-14T02:33:02;2.72;;;2.50;;
23718;SDS011;43322;52.230;5.702;2023-06-14T02:35:29;3.15;;;2.35;;
23718;SDS011;43322;52.230;5.702;2023-06-14T02:37:56;5.20;;;2.40;;
23718;SDS011;43322;52.230;5.702;2023-06-14T02:40:23;4.10;;;2.88;;
23718;SDS011;43322;52.230;5.702;2023-06-14T02:42:50;4.28;;;2.55;;
23718;SDS011;43322;52.230;5.702;2023-06-14T02:45:17;4.15;;;2.72;;
23718;SDS011;43322;52.230;5.702;2023-06-14T02:47:43;3.40;;;2.83;;
23718;SDS011;43322;52.230;5.702;2023-06-14T02:50:13;3.08;;;2.78;;
23718;SDS011;43322;52.230;5.702;2023-06-14T02:52:41;4.05;;;2.80;;
23718;SDS011;43322;52.230;5.702;2023-06-14T02:55:09;3.95;;;2.35;;
23718;SDS011;43322;52.230;5.702;2023-06-14T02:57:36;2.60;;;2.40;;
23718;SDS011;43322;52.230;5.702;2023-06-14T03:00:03;3.65;;;2.65;;
23718;SDS011;43322;52.230;5.702;2023-06-14T03:02:34;4.85;;;2.60;;
23718;SDS011;43322;52.230;5.702;2023-06-14T03:05:01;7.70;;;2.45;;
23718;SDS011;43322;52.230;5.702;2023-06-14T03:07:29;5.07;;;2.70;;
23718;SDS011;43322;52.230;5.702;2023-06-14T03:09:56;4.47;;;2.90;;
23718;SDS011;43322;52.230;5.702;2023-06-14T03:12:23;7.80;;;3.10;;
23718;SDS011;43322;52.230;5.702;2023-06-14T03:14:49;3.35;;;2.70;;
23718;SDS011;43322;52.230;5.702;2023-06-14T03:17:16;2.60;;;2.40;;
23718;SDS011;43322;52.230;5.702;2023-06-14T03:19:44;6.93;;;2.60;;
23718;SDS011;43322;52.230;5.702;2023-06-14T03:22:11;7.57;;;2.30;;
23718;SDS011;43322;52.230;5.702;2023-06-14T03:24:39;2.85;;;2.60;;
23718;SDS011;43322;52.230;5.702;2023-06-14T03:27:06;2.80;;;2.60;;
23718;SDS011;43322;52.230;5.702;2023-06-14T03:29:34;6.00;;;2.45;;
23718;SDS011;43322;52.230;5.702;2023-06-14T03:32:02;2.88;;;2.67;;
23718;SDS011;43322;52.230;5.702;2023-06-14T03:34:29;2.60;;;2.45;;
23718;SDS011;43322;52.230;5.702;2023-06-14T03:36:55;4.07;;;2.78;;
23718;SDS011;43322;52.230;5.702;2023-06-14T03:39:22;5.53;;;2.42;;
23718;SDS011;43322;52.230;5.702;2023-06-14T03:41:50;4.82;;;2.47;;
23718;SDS011;43322;52.230;5.702;2023-06-14T03:44:17;4.22;;;2.30;;
23718;SDS011;43322;52.230;5.702;2023-06-14T03:46:44;3.53;;;2.90;;
23718;SDS011;43322;52.230;5.702;2023-06-14T03:49:11;2.90;;;2.58;;
23718;SDS011;43322;52.230;5.702;2023-06-14T03:51:38;2.70;;;2.50;;
23718;SDS011;43322;52.230;5.702;2023-06-14T03:54:05;5.80;;;2.53;;
23718;SDS011;43322;52.230;5.702;2023-06-14T03:56:32;6.88;;;2.60;;
23718;SDS011;43322;52.230;5.702;2023-06-14T03:59:00;4.93;;;2.63;;
23718;SDS011;43322;52.230;5.702;2023-06-14T04:01:27;6.53;;;2.95;;
23718;SDS011;43322;52.230;5.702;2023-06-14T04:03:55;6.35;;;2.45;;
23718;SDS011;43322;52.230;5.702;2023-06-14T04:06:22;3.88;;;2.88;;
23718;SDS011;43322;52.230;5.702;2023-06-14T04:08:49;3.63;;;2.45;;
23718;SDS011;43322;52.230;5.702;2023-06-14T04:11:16;2.50;;;2.40;;
23718;SDS011;43322;52.230;5.702;2023-06-14T04:13:44;4.63;;;2.40;;
23718;SDS011;43322;52.230;5.702;2023-06-14T04:16:13;4.85;;;2.47;;
23718;SDS011;43322;52.230;5.702;2023-06-14T04:18:40;5.07;;;2.80;;
23718;SDS011;43322;52.230;5.702;2023-06-14T04:21:06;5.13;;;2.63;;
23718;SDS011;43322;52.230;5.702;2023-06-14T04:23:33;3.75;;;2.50;;
23718;SDS011;43322;52.230;5.702;2023-06-14T04:26:00;3.53;;;2.65;;
23718;SDS011;43322;52.230;5.702;2023-06-14T04:28:27;2.95;;;2.47;;
23718;SDS011;43322;52.230;5.702;2023-06-14T04:30:55;5.25;;;2.88;;
23718;SDS011;43322;52.230;5.702;2023-06-14T04:33:23;2.72;;;2.53;;
23718;SDS011;43322;52.230;5.702;2023-06-14T04:35:50;6.00;;;2.60;;
23718;SDS011;43322;52.230;5.702;2023-06-14T04:38:18;5.85;;;2.42;;
23718;SDS011;43322;52.230;5.702;2023-06-14T04:40:49;6.57;;;3.05;;
23718;SDS011;43322;52.230;5.702;2023-06-14T04:43:18;3.80;;;2.67;;
23718;SDS011;43322;52.230;5.702;2023-06-14T04:45:49;5.88;;;2.72;;
23718;SDS011;43322;52.230;5.702;2023-06-14T04:48:16;6.15;;;2.83;;
23718;SDS011;43322;52.230;5.702;2023-06-14T04:50:45;5.25;;;2.78;;
23718;SDS011;43322;52.230;5.702;2023-06-14T04:53:12;3.22;;;2.60;;
23718;SDS011;43322;52.230;5.702;2023-06-14T04:55:39;5.93;;;2.60;;
23718;SDS011;43322;52.230;5.702;2023-06-14T04:58:09;2.95;;;2.65;;
23718;SDS011;43322;52.230;5.702;2023-06-14T05:00:37;2.78;;;2.50;;
23718;SDS011;43322;52.230;5.702;2023-06-14T05:03:04;4.70;;;3.00;;
23718;SDS011;43322;52.230;5.702;2023-06-14T05:05:31;2.63;;;2.50;;
23718;SDS011;43322;52.230;5.702;2023-06-14T05:08:00;3.10;;;2.50;;
23718;SDS011;43322;52.230;5.702;2023-06-14T05:10:27;5.30;;;2.67;;
23718;SDS011;43322;52.230;5.702;2023-06-14T05:12:54;2.65;;;2.45;;
23718;SDS011;43322;52.230;5.702;2023-06-14T05:15:21;3.60;;;2.70;;
23718;SDS011;43322;52.230;5.702;2023-06-14T05:17:50;3.25;;;2.70;;
23718;SDS011;43322;52.230;5.702;2023-06-14T05:20:20;4.18;;;2.60;;
23718;SDS011;43322;52.230;5.702;2023-06-14T05:22:47;3.78;;;2.40;;
23718;SDS011;43322;52.230;5.702;2023-06-14T05:25:18;6.07;;;3.20;;
23718;SDS011;43322;52.230;5.702;2023-06-14T05:27:44;6.40;;;2.92;;
23718;SDS011;43322;52.230;5.702;2023-06-14T05:30:12;6.10;;;2.72;;
23718;SDS011;43322;52.230;5.702;2023-06-14T05:32:39;7.85;;;2.75;;
23718;SDS011;43322;52.230;5.702;2023-06-14T05:35:06;5.60;;;2.63;;
23718;SDS011;43322;52.230;5.702;2023-06-14T05:37:33;4.82;;;2.63;;
23718;SDS011;43322;52.230;5.702;2023-06-14T05:40:00;6.15;;;2.22;;
23718;SDS011;43322;52.230;5.702;2023-06-14T05:42:30;3.88;;;2.53;;
23718;SDS011;43322;52.230;5.702;2023-06-14T05:44:57;2.70;;;2.50;;
23718;SDS011;43322;52.230;5.702;2023-06-14T05:47:24;5.25;;;2.60;;
23718;SDS011;43322;52.230;5.702;2023-06-14T05:49:50;4.43;;;2.70;;
23718;SDS011;43322;52.230;5.702;2023-06-14T05:52:17;7.28;;;3.00;;
23718;SDS011;43322;52.230;5.702;2023-06-14T05:54:44;7.30;;;2.85;;
23718;SDS011;43322;52.230;5.702;2023-06-14T05:57:11;3.90;;;2.42;;
23718;SDS011;43322;52.230;5.702;2023-06-14T05:59:39;6.30;;;3.25;;
23718;SDS011;43322;52.230;5.702;2023-06-14T06:02:06;4.72;;;2.78;;
23718;SDS011;43322;52.230;5.702;2023-06-14T06:04:32;3.95;;;2.50;;
23718;SDS011;43322;52.230;5.702;2023-06-14T06:06:59;3.67;;;2.28;;
23718;SDS011;43322;52.230;5.702;2023-06-14T06:09:26;9.27;;;3.30;;
23718;SDS011;43322;52.230;5.702;2023-06-14T06:11:53;3.78;;;2.80;;
23718;SDS011;43322;52.230;5.702;2023-06-14T06:14:20;3.80;;;2.47;;
23718;SDS011;43322;52.230;5.702;2023-06-14T06:16:48;10.27;;;2.95;;
23718;SDS011;43322;52.230;5.702;2023-06-14T06:19:15;2.60;;;2.40;;
23718;SDS011;43322;52.230;5.702;2023-06-14T06:21:41;3.10;;;2.67;;
23718;SDS011;43322;52.230;5.702;2023-06-14T06:24:08;3.97;;;2.78;;
23718;SDS011;43322;52.230;5.702;2023-06-14T06:26:35;6.97;;;2.20;;
23718;SDS011;43322;52.230;5.702;2023-06-14T06:29:02;4.85;;;2.63;;
23718;SDS011;43322;52.230;5.702;2023-06-14T06:31:29;4.50;;;2.70;;
23718;SDS011;43322;52.230;5.702;2023-06-14T06:33:57;3.80;;;2.33;;
23718;SDS011;43322;52.230;5.702;2023-06-14T06:36:23;4.65;;;2.60;;
23718;SDS011;43322;52.230;5.702;2023-06-14T06:38:50;6.55;;;2.78;;
23718;SDS011;43322;52.230;5.702;2023-06-14T06:41:17;3.28;;;2.50;;
23718;SDS011;43322;52.230;5.702;2023-06-14T06:43:44;3.22;;;2.53;;
23718;SDS011;43322;52.230;5.702;2023-06-14T06:46:11;2.42;;;2.30;;
23718;SDS011;43322;52.230;5.702;2023-06-14T06:48:38;3.60;;;2.17;;
23718;SDS011;43322;52.230;5.702;2023-06-14T06:51:06;4.95;;;2.45;;
23718;SDS011;43322;52.230;5.702;2023-06-14T06:53:33;9.23;;;2.38;;
23718;SDS011;43322;52.230;5.702;2023-06-14T06:56:00;2.20;;;2.10;;
23718;SDS011;43322;52.230;5.702;2023-06-14T06:58:26;2.53;;;2.03;;
23718;SDS011;43322;52.230;5.702;2023-06-14T07:00:53;8.23;;;2.38;;
23718;SDS011;43322;52.230;5.702;2023-06-14T07:03:20;3.47;;;2.25;;
23718;SDS011;43322;52.230;5.702;2023-06-14T07:05:46;2.42;;;2.28;;
23718;SDS011;43322;52.230;5.702;2023-06-14T07:08:14;3.03;;;2.30;;
23718;SDS011;43322;52.230;5.702;2023-06-14T07:10:41;2.03;;;1.92;;
23718;SDS011;43322;52.230;5.702;2023-06-14T07:13:08;3.25;;;2.00;;
23718;SDS011;43322;52.230;5.702;2023-06-14T07:15:34;1.88;;;1.77;;
23718;SDS011;43322;52.230;5.702;2023-06-14T07:18:01;3.33;;;1.75;;
23718;SDS011;43322;52.230;5.702;2023-06-14T07:20:28;2.10;;;1.80;;
23718;SDS011;43322;52.230;5.702;2023-06-14T07:22:58;3.92;;;2.03;;
23718;SDS011;43322;52.230;5.702;2023-06-14T07:25:26;3.10;;;1.77;;
23718;SDS011;43322;52.230;5.702;2023-06-14T07:27:53;8.02;;;1.85;;
23718;SDS011;43322;52.230;5.702;2023-06-14T07:30:20;2.05;;;1.65;;
23718;SDS011;43322;52.230;5.702;2023-06-14T07:32:50;10.18;;;2.42;;
23718;SDS011;43322;52.230;5.702;2023-06-14T07:35:17;3.05;;;1.50;;
23718;SDS011;43322;52.230;5.702;2023-06-14T07:37:44;1.80;;;1.70;;
23718;SDS011;43322;52.230;5.702;2023-06-14T07:40:12;2.33;;;1.77;;
23718;SDS011;43322;52.230;5.702;2023-06-14T07:42:40;1.83;;;1.73;;
23718;SDS011;43322;52.230;5.702;2023-06-14T07:45:07;4.60;;;1.80;;
23718;SDS011;43322;52.230;5.702;2023-06-14T07:47:34;2.08;;;1.50;;
23718;SDS011;43322;52.230;5.702;2023-06-14T07:50:01;2.03;;;1.70;;
23718;SDS011;43322;52.230;5.702;2023-06-14T07:52:28;2.47;;;1.60;;
23718;SDS011;43322;52.230;5.702;2023-06-14T07:54:54;1.75;;;1.65;;
23718;SDS011;43322;52.230;5.702;2023-06-14T07:57:21;3.33;;;1.70;;
23718;SDS011;43322;52.230;5.702;2023-06-14T07:59:49;4.38;;;1.42;;
23718;SDS011;43322;52.230;5.702;2023-06-14T08:02:16;1.63;;;1.50;;
23718;SDS011;43322;52.230;5.702;2023-06-14T08:04:43;1.83;;;1.42;;
23718;SDS011;43322;52.230;5.702;2023-06-14T08:07:10;1.77;;;1.67;;
23718;SDS011;43322;52.230;5.702;2023-06-14T08:09:37;6.20;;;1.67;;
23718;SDS011;43322;52.230;5.702;2023-06-14T08:12:04;2.90;;;1.58;;
23718;SDS011;43322;52.230;5.702;2023-06-14T08:14:32;2.83;;;1.30;;
23718;SDS011;43322;52.230;5.702;2023-06-14T08:17:00;4.00;;;1.15;;
23718;SDS011;43322;52.230;5.702;2023-06-14T08:19:27;2.45;;;1.77;;
23718;SDS011;43322;52.230;5.702;2023-06-14T08:21:54;1.50;;;1.40;;
23718;SDS011;43322;52.230;5.702;2023-06-14T08:24:21;5.82;;;1.52;;
23718;SDS011;43322;52.230;5.702;2023-06-14T08:26:49;2.88;;;1.50;;
23718;SDS011;43322;52.230;5.702;2023-06-14T08:29:16;2.70;;;1.73;;
23718;SDS011;43322;52.230;5.702;2023-06-14T08:31:42;2.47;;;1.63;;
23718;SDS011;43322;52.230;5.702;2023-06-14T08:34:10;1.50;;;1.40;;
23718;SDS011;43322;52.230;5.702;2023-06-14T08:36:37;1.70;;;1.60;;
23718;SDS011;43322;52.230;5.702;2023-06-14T08:39:04;2.35;;;1.63;;
23718;SDS011;43322;52.230;5.702;2023-06-14T08:41:31;5.75;;;1.95;;
23718;SDS011;43322;52.230;5.702;2023-06-14T08:43:59;5.05;;;1.90;;
23718;SDS011;43322;52.230;5.702;2023-06-14T08:46:26;2.80;;;1.40;;
23718;SDS011;43322;52.230;5.702;2023-06-14T08:48:54;1.77;;;1.50;;
23718;SDS011;43322;52.230;5.702;2023-06-14T08:51:25;1.80;;;1.50;;
23718;SDS011;43322;52.230;5.702;2023-06-14T08:53:58;3.75;;;1.70;;
23718;SDS011;43322;52.230;5.702;2023-06-14T08:56:26;1.75;;;1.63;;
23718;SDS011;43322;52.230;5.702;2023-06-14T08:58:54;3.50;;;1.90;;
23718;SDS011;43322;52.230;5.702;2023-06-14T09:01:21;3.70;;;1.60;;
23718;SDS011;43322;52.230;5.702;2023-06-14T09:03:48;1.83;;;1.55;;
23718;SDS011;43322;52.230;5.702;2023-06-14T09:06:15;1.60;;;1.50;;
23718;SDS011;43322;52.230;5.702;2023-06-14T09:08:46;4.45;;;1.98;;
23718;SDS011;43322;52.230;5.702;2023-06-14T09:11:14;4.47;;;1.95;;
23718;SDS011;43322;52.230;5.702;2023-06-14T09:13:41;1.48;;;1.38;;
23718;SDS011;43322;52.230;5.702;2023-06-14T09:16:08;4.80;;;1.50;;
23718;SDS011;43322;52.230;5.702;2023-06-14T09:18:35;2.85;;;1.48;;
23718;SDS011;43322;52.230;5.702;2023-06-14T09:21:03;2.80;;;1.55;;
23718;SDS011;43322;52.230;5.702;2023-06-14T09:23:33;1.45;;;1.38;;
23718;SDS011;43322;52.230;5.702;2023-06-14T09:26:03;1.15;;;1.15;;
23718;SDS011;43322;52.230;5.702;2023-06-14T09:28:33;1.00;;;1.00;;
23718;SDS011;43322;52.230;5.702;2023-06-14T09:31:00;3.25;;;1.20;;
23718;SDS011;43322;52.230;5.702;2023-06-14T09:33:26;2.63;;;1.30;;
23718;SDS011;43322;52.230;5.702;2023-06-14T09:35:54;3.53;;;1.70;;
23718;SDS011;43322;52.230;5.702;2023-06-14T09:38:21;1.38;;;1.38;;
23718;SDS011;43322;52.230;5.702;2023-06-14T09:40:47;4.55;;;1.30;;
23718;SDS011;43322;52.230;5.702;2023-06-14T09:43:17;1.63;;;1.52;;
23718;SDS011;43322;52.230;5.702;2023-06-14T09:45:45;1.23;;;1.13;;
23718;SDS011;43322;52.230;5.702;2023-06-14T09:48:13;1.33;;;1.33;;
23718;SDS011;43322;52.230;5.702;2023-06-14T09:50:42;1.85;;;1.50;;
23718;SDS011;43322;52.230;5.702;2023-06-14T09:53:11;2.72;;;1.70;;
23718;SDS011;43322;52.230;5.702;2023-06-14T09:55:40;1.52;;;1.42;;
23718;SDS011;43322;52.230;5.702;2023-06-14T09:58:08;3.53;;;1.52;;
23718;SDS011;43322;52.230;5.702;2023-06-14T10:00:38;1.52;;;1.30;;
23718;SDS011;43322;52.230;5.702;2023-06-14T10:03:06;1.80;;;1.70;;
23718;SDS011;43322;52.230;5.702;2023-06-14T10:05:39;1.65;;;1.55;;
23718;SDS011;43322;52.230;5.702;2023-06-14T10:08:10;1.63;;;1.50;;
23718;SDS011;43322;52.230;5.702;2023-06-14T10:10:40;1.60;;;1.50;;
23718;SDS011;43322;52.230;5.702;2023-06-14T10:13:08;1.90;;;1.33;;
23718;SDS011;43322;52.230;5.702;2023-06-14T10:15:42;3.67;;;1.20;;
23718;SDS011;43322;52.230;5.702;2023-06-14T10:18:18;2.75;;;1.50;;
23718;SDS011;43322;52.230;5.702;2023-06-14T10:20:51;5.47;;;1.30;;
23718;SDS011;43322;52.230;5.702;2023-06-14T10:23:26;1.50;;;1.40;;
23718;SDS011;43322;52.230;5.702;2023-06-14T10:25:56;2.13;;;1.40;;
23718;SDS011;43322;52.230;5.702;2023-06-14T10:28:25;1.92;;;1.25;;
23718;SDS011;43322;52.230;5.702;2023-06-14T10:31:08;5.63;;;1.48;;
23718;SDS011;43322;52.230;5.702;2023-06-14T10:33:39;1.77;;;1.33;;
23718;SDS011;43322;52.230;5.702;2023-06-14T10:36:25;1.75;;;1.30;;
23718;SDS011;43322;52.230;5.702;2023-06-14T10:38:59;6.65;;;1.48;;
23718;SDS011;43322;52.230;5.702;2023-06-14T10:41:29;5.00;;;1.65;;
23718;SDS011;43322;52.230;5.702;2023-06-14T10:44:10;3.35;;;1.30;;
23718;SDS011;43322;52.230;5.702;2023-06-14T10:46:59;3.63;;;1.50;;
23718;SDS011;43322;52.230;5.702;2023-06-14T10:49:36;2.63;;;1.38;;
23718;SDS011;43322;52.230;5.702;2023-06-14T10:52:08;2.45;;;1.17;;
23718;SDS011;43322;52.230;5.702;2023-06-14T10:54:58;2.20;;;1.45;;
23718;SDS011;43322;52.230;5.702;2023-06-14T10:57:26;1.30;;;1.20;;
23718;SDS011;43322;52.230;5.702;2023-06-14T10:59:53;1.77;;;1.30;;
23718;SDS011;43322;52.230;5.702;2023-06-14T11:02:36;1.13;;;1.10;;
23718;SDS011;43322;52.230;5.702;2023-06-14T11:05:16;1.60;;;1.50;;
23718;SDS011;43322;52.230;5.702;2023-06-14T11:07:55;1.20;;;1.20;;
23718;SDS011;43322;52.230;5.702;2023-06-14T11:10:32;3.03;;;1.45;;
23718;SDS011;43322;52.230;5.702;2023-06-14T11:13:03;1.10;;;1.10;;
23718;SDS011;43322;52.230;5.702;2023-06-14T11:15:30;2.45;;;1.30;;
23718;SDS011;43322;52.230;5.702;2023-06-14T11:17:58;3.50;;;1.30;;
23718;SDS011;43322;52.230;5.702;2023-06-14T11:20:29;1.35;;;1.23;;
23718;SDS011;43322;52.230;5.702;2023-06-14T11:22:57;6.78;;;1.50;;
23718;SDS011;43322;52.230;5.702;2023-06-14T11:25:24;1.67;;;1.20;;
23718;SDS011;43322;52.230;5.702;2023-06-14T11:27:51;1.50;;;1.42;;
23718;SDS011;43322;52.230;5.702;2023-06-14T11:30:18;1.77;;;1.30;;
23718;SDS011;43322;52.230;5.702;2023-06-14T11:32:45;1.45;;;1.35;;
23718;SDS011;43322;52.230;5.702;2023-06-14T11:35:14;2.85;;;1.50;;
23718;SDS011;43322;52.230;5.702;2023-06-14T11:37:42;1.50;;;1.40;;
23718;SDS011;43322;52.230;5.702;2023-06-14T11:40:09;3.10;;;1.30;;
23718;SDS011;43322;52.230;5.702;2023-06-14T11:42:38;2.35;;;2.03;;
23718;SDS011;43322;52.230;5.702;2023-06-14T11:45:07;4.22;;;1.35;;
23718;SDS011;43322;52.230;5.702;2023-06-14T11:47:35;1.13;;;1.10;;
23718;SDS011;43322;52.230;5.702;2023-06-14T11:50:02;1.15;;;1.10;;
23718;SDS011;43322;52.230;5.702;2023-06-14T11:52:32;1.90;;;1.40;;
23718;SDS011;43322;52.230;5.702;2023-06-14T11:54:59;1.73;;;1.55;;
23718;SDS011;43322;52.230;5.702;2023-06-14T11:57:29;2.45;;;1.40;;
23718;SDS011;43322;52.230;5.702;2023-06-14T11:59:56;3.03;;;1.20;;
23718;SDS011;43322;52.230;5.702;2023-06-14T12:02:23;2.58;;;1.40;;
23718;SDS011;43322;52.230;5.702;2023-06-14T12:04:52;2.45;;;1.33;;
23718;SDS011;43322;52.230;5.702;2023-06-14T12:07:20;3.00;;;1.40;;
23718;SDS011;43322;52.230;5.702;2023-06-14T12:10:05;1.58;;;1.48;;
23718;SDS011;43322;52.230;5.702;2023-06-14T12:12:34;2.35;;;1.33;;
23718;SDS011;43322;52.230;5.702;2023-06-14T12:15:02;1.50;;;1.40;;
23718;SDS011;43322;52.230;5.702;2023-06-14T12:17:31;1.92;;;1.30;;
23718;SDS011;43322;52.230;5.702;2023-06-14T12:19:59;4.35;;;1.20;;
23718;SDS011;43322;52.230;5.702;2023-06-14T12:22:33;1.17;;;1.17;;
23718;SDS011;43322;52.230;5.702;2023-06-14T12:24:59;1.65;;;1.30;;
23718;SDS011;43322;52.230;5.702;2023-06-14T12:27:29;1.35;;;1.20;;
23718;SDS011;43322;52.230;5.702;2023-06-14T12:30:00;2.05;;;1.30;;
23718;SDS011;43322;52.230;5.702;2023-06-14T12:32:27;1.23;;;1.15;;
23718;SDS011;43322;52.230;5.702;2023-06-14T12:34:54;1.48;;;1.38;;
23718;SDS011;43322;52.230;5.702;2023-06-14T12:37:21;1.10;;;1.10;;
23718;SDS011;43322;52.230;5.702;2023-06-14T12:39:47;1.70;;;1.50;;
23718;SDS011;43322;52.230;5.702;2023-06-14T12:42:15;3.50;;;1.42;;
23718;SDS011;43322;52.230;5.702;2023-06-14T12:44:44;4.03;;;1.27;;
23718;SDS011;43322;52.230;5.702;2023-06-14T12:47:10;1.45;;;1.35;;
23718;SDS011;43322;52.230;5.702;2023-06-14T12:49:38;1.20;;;1.20;;
23718;SDS011;43322;52.230;5.702;2023-06-14T12:52:06;3.00;;;1.48;;
23718;SDS011;43322;52.230;5.702;2023-06-14T12:54:33;1.50;;;1.40;;
23718;SDS011;43322;52.230;5.702;2023-06-14T12:57:00;1.85;;;1.17;;
23718;SDS011;43322;52.230;5.702;2023-06-14T12:59:28;2.45;;;1.35;;
23718;SDS011;43322;52.230;5.702;2023-06-14T13:01:59;9.02;;;1.50;;
23718;SDS011;43322;52.230;5.702;2023-06-14T13:04:35;2.00;;;1.10;;
23718;SDS011;43322;52.230;5.702;2023-06-14T13:07:02;1.63;;;1.52;;
23718;SDS011;43322;52.230;5.702;2023-06-14T13:09:29;1.48;;;1.38;;
23718;SDS011;43322;52.230;5.702;2023-06-14T13:11:56;3.15;;;1.35;;
23718;SDS011;43322;52.230;5.702;2023-06-14T13:14:23;2.13;;;1.20;;
23718;SDS011;43322;52.230;5.702;2023-06-14T13:16:49;2.88;;;1.10;;
23718;SDS011;43322;52.230;5.702;2023-06-14T13:19:17;1.90;;;1.33;;
23718;SDS011;43322;52.230;5.702;2023-06-14T13:21:44;1.20;;;1.02;;
23718;SDS011;43322;52.230;5.702;2023-06-14T13:24:11;3.15;;;1.40;;
23718;SDS011;43322;52.230;5.702;2023-06-14T13:26:38;1.50;;;1.40;;
23718;SDS011;43322;52.230;5.702;2023-06-14T13:29:04;1.25;;;1.15;;
23718;SDS011;43322;52.230;5.702;2023-06-14T13:31:31;1.38;;;1.27;;
23718;SDS011;43322;52.230;5.702;2023-06-14T13:33:58;1.25;;;1.25;;
23718;SDS011;43322;52.230;5.702;2023-06-14T13:36:26;3.83;;;1.23;;
23718;SDS011;43322;52.230;5.702;2023-06-14T13:38:53;5.20;;;1.50;;
23718;SDS011;43322;52.230;5.702;2023-06-14T13:41:20;3.00;;;1.65;;
23718;SDS011;43322;52.230;5.702;2023-06-14T13:43:46;1.20;;;1.05;;
23718;SDS011;43322;52.230;5.702;2023-06-14T13:46:13;1.60;;;1.50;;
23718;SDS011;43322;52.230;5.702;2023-06-14T13:48:40;3.25;;;1.20;;
23718;SDS011;43322;52.230;5.702;2023-06-14T13:51:07;1.92;;;1.30;;
23718;SDS011;43322;52.230;5.702;2023-06-14T13:53:35;1.25;;;1.23;;
23718;SDS011;43322;52.230;5.702;2023-06-14T13:56:02;2.25;;;1.10;;
23718;SDS011;43322;52.230;5.702;2023-06-14T13:58:29;1.55;;;1.30;;
23718;SDS011;43322;52.230;5.702;2023-06-14T14:00:55;1.52;;;1.30;;
23718;SDS011;43322;52.230;5.702;2023-06-14T14:03:24;1.55;;;1.40;;
23718;SDS011;43322;52.230;5.702;2023-06-14T14:05:51;1.77;;;1.35;;
23718;SDS011;43322;52.230;5.702;2023-06-14T14:08:18;3.50;;;1.50;;
23718;SDS011;43322;52.230;5.702;2023-06-14T14:10:46;1.75;;;1.30;;
23718;SDS011;43322;52.230;5.702;2023-06-14T14:13:13;1.30;;;1.25;;
23718;SDS011;43322;52.230;5.702;2023-06-14T14:15:39;4.32;;;1.25;;
23718;SDS011;43322;52.230;5.702;2023-06-14T14:18:07;1.30;;;1.00;;
23718;SDS011;43322;52.230;5.702;2023-06-14T14:20:33;1.10;;;1.10;;
23718;SDS011;43322;52.230;5.702;2023-06-14T14:23:00;2.65;;;1.40;;
23718;SDS011;43322;52.230;5.702;2023-06-14T14:25:27;1.30;;;1.17;;
23718;SDS011;43322;52.230;5.702;2023-06-14T14:27:55;1.58;;;1.30;;
23718;SDS011;43322;52.230;5.702;2023-06-14T14:30:22;1.63;;;1.17;;
23718;SDS011;43322;52.230;5.702;2023-06-14T14:32:48;1.30;;;1.02;;
23718;SDS011;43322;52.230;5.702;2023-06-14T14:35:16;1.77;;;1.10;;
23718;SDS011;43322;52.230;5.702;2023-06-14T14:37:42;1.20;;;1.20;;
23718;SDS011;43322;52.230;5.702;2023-06-14T14:40:09;4.05;;;1.25;;
23718;SDS011;43322;52.230;5.702;2023-06-14T14:42:37;1.30;;;1.17;;
23718;SDS011;43322;52.230;5.702;2023-06-14T14:45:06;2.05;;;1.20;;
23718;SDS011;43322;52.230;5.702;2023-06-14T14:47:33;1.13;;;1.02;;
23718;SDS011;43322;52.230;5.702;2023-06-14T14:50:00;1.42;;;1.20;;
23718;SDS011;43322;52.230;5.702;2023-06-14T14:52:26;3.50;;;1.10;;